createdAt,value
2018-06-15T00:00:11.787Z,21.32
2018-06-15T00:01:11.825Z,21.32
2018-06-15T00:02:11.837Z,21.31
2018-06-15T00:03:11.920Z,21.32
2018-06-15T00:04:11.717Z,21.31
2018-06-15T00:05:11.751Z,21.31
2018-06-15T00:06:11.864Z,21.3
2018-06-15T00:07:11.926Z,21.3
2018-06-15T00:08:11.753Z,21.3
2018-06-15T00:09:11.912Z,21.3
2018-06-15T00:10:11.947Z,21.3
2018-06-15T00:11:11.818Z,21.3
2018-06-15T00:12:11.775Z,21.3
2018-06-15T00:13:11.815Z,21.3
2018-06-15T00:14:11.706Z,21.3
2018-06-15T00:15:11.890Z,21.3
2018-06-15T00:16:11.790Z,21.3
2018-06-15T00:17:11.738Z,21.3
2018-06-15T00:18:11.802Z,21.3
2018-06-15T00:19:11.912Z,21.29
2018-06-15T00:20:11.870Z,21.3
2018-06-15T00:21:11.800Z,21.29
2018-06-15T00:22:11.938Z,21.29
2018-06-15T00:23:11.904Z,21.28
2018-06-15T00:24:11.948Z,21.27
2018-06-15T00:25:11.831Z,21.27
2018-06-15T00:26:11.949Z,21.27
2018-06-15T00:27:11.794Z,21.26
2018-06-15T00:28:12.081Z,21.27
2018-06-15T00:29:12.113Z,21.27
2018-06-15T00:30:11.799Z,21.26
2018-06-15T00:31:11.927Z,21.26
2018-06-15T00:32:11.845Z,21.27
2018-06-15T00:33:11.894Z,21.26
2018-06-15T00:34:11.905Z,21.25
2018-06-15T00:35:11.884Z,21.25
2018-06-15T00:36:11.810Z,21.25
2018-06-15T00:37:11.865Z,21.25
2018-06-15T00:38:11.756Z,21.25
2018-06-15T00:39:11.765Z,21.26
2018-06-15T00:40:11.922Z,21.26
2018-06-15T00:41:11.739Z,21.25
2018-06-15T00:42:11.893Z,21.25
2018-06-15T00:43:11.835Z,21.24
2018-06-15T00:44:11.838Z,21.25
2018-06-15T00:45:12.005Z,21.25
2018-06-15T00:46:11.718Z,21.24
2018-06-15T00:47:11.750Z,21.24
2018-06-15T00:48:11.851Z,21.24
2018-06-15T00:49:11.728Z,21.24
2018-06-15T00:50:11.603Z,21.24
2018-06-15T00:51:11.989Z,21.24
2018-06-15T00:52:11.750Z,21.24
2018-06-15T00:53:11.863Z,21.24
2018-06-15T00:54:11.914Z,21.24
2018-06-15T00:55:11.940Z,21.25
2018-06-15T00:56:12.159Z,21.25
2018-06-15T00:57:11.928Z,21.25
2018-06-15T00:58:12.042Z,21.25
2018-06-15T00:59:11.734Z,21.26
2018-06-15T01:00:11.838Z,21.26
2018-06-15T01:01:11.870Z,21.25
2018-06-15T01:02:11.864Z,21.25
2018-06-15T01:03:11.900Z,21.25
2018-06-15T01:04:11.788Z,21.25
2018-06-15T01:05:11.808Z,21.25
2018-06-15T01:06:11.751Z,21.26
2018-06-15T01:07:11.740Z,21.25
2018-06-15T01:08:11.694Z,21.25
2018-06-15T01:09:11.718Z,21.25
2018-06-15T01:10:11.845Z,21.24
2018-06-15T01:11:11.851Z,21.25
2018-06-15T01:12:11.747Z,21.25
2018-06-15T01:13:11.851Z,21.24
2018-06-15T01:14:11.901Z,21.24
2018-06-15T01:15:11.871Z,21.24
2018-06-15T01:16:11.840Z,21.25
2018-06-15T01:17:11.700Z,21.25
2018-06-15T01:18:11.743Z,21.24
2018-06-15T01:19:11.672Z,21.24
2018-06-15T01:20:11.802Z,21.24
2018-06-15T01:21:11.727Z,21.24
2018-06-15T01:22:11.819Z,21.25
2018-06-15T01:23:12.019Z,21.26
2018-06-15T01:24:11.824Z,21.25
2018-06-15T01:25:11.883Z,21.25
2018-06-15T01:26:11.829Z,21.25
2018-06-15T01:27:11.975Z,21.25
2018-06-15T01:28:12.072Z,21.24
2018-06-15T01:29:11.888Z,21.24
2018-06-15T01:30:11.999Z,21.24
2018-06-15T01:31:11.735Z,21.24
2018-06-15T01:32:11.896Z,21.24
2018-06-15T01:33:11.796Z,21.24
2018-06-15T01:34:11.878Z,21.24
2018-06-15T01:35:11.803Z,21.24
2018-06-15T01:36:11.816Z,21.24
2018-06-15T01:37:11.889Z,21.24
2018-06-15T01:38:11.859Z,21.24
2018-06-15T01:39:11.941Z,21.24
2018-06-15T01:40:11.828Z,21.24
2018-06-15T01:41:11.789Z,21.23
2018-06-15T01:42:11.706Z,21.23
2018-06-15T01:43:11.911Z,21.24
2018-06-15T01:44:11.666Z,21.24
2018-06-15T01:45:11.748Z,21.22
2018-06-15T01:46:11.878Z,21.22
2018-06-15T01:47:11.865Z,21.22
2018-06-15T01:48:11.908Z,21.22
2018-06-15T01:49:11.934Z,21.23
2018-06-15T01:50:11.784Z,21.23
2018-06-15T01:51:11.914Z,21.23
2018-06-15T01:52:11.742Z,21.22
2018-06-15T01:53:11.748Z,21.22
2018-06-15T01:54:11.814Z,21.22
2018-06-15T01:55:11.840Z,21.21
2018-06-15T01:56:11.809Z,21.21
2018-06-15T01:57:12.174Z,21.21
2018-06-15T01:58:12.052Z,21.2
2018-06-15T01:59:11.852Z,21.21
2018-06-15T02:00:11.974Z,21.21
2018-06-15T02:01:12.285Z,21.2
2018-06-15T02:02:11.679Z,21.21
2018-06-15T02:03:11.812Z,21.2
2018-06-15T02:04:11.809Z,21.21
2018-06-15T02:05:11.899Z,21.2
2018-06-15T02:06:11.873Z,21.2
2018-06-15T02:07:11.766Z,21.2
2018-06-15T02:08:11.805Z,21.19
2018-06-15T02:09:11.861Z,21.2
2018-06-15T02:10:11.814Z,21.2
2018-06-15T02:11:11.668Z,21.21
2018-06-15T02:12:11.960Z,21.2
2018-06-15T02:13:11.833Z,21.19
2018-06-15T02:14:11.883Z,21.19
2018-06-15T02:15:11.828Z,21.19
2018-06-15T02:16:11.835Z,21.19
2018-06-15T02:17:11.702Z,21.19
2018-06-15T02:18:11.703Z,21.19
2018-06-15T02:19:11.873Z,21.2
2018-06-15T02:20:11.676Z,21.19
2018-06-15T02:21:11.864Z,21.19
2018-06-15T02:22:11.782Z,21.19
2018-06-15T02:23:11.828Z,21.2
2018-06-15T02:24:11.785Z,21.2
2018-06-15T02:25:11.697Z,21.19
2018-06-15T02:26:11.943Z,21.19
2018-06-15T02:27:11.909Z,21.19
2018-06-15T02:28:11.744Z,21.18
2018-06-15T02:29:11.656Z,21.19
2018-06-15T02:30:11.947Z,21.2
2018-06-15T02:31:11.880Z,21.19
2018-06-15T02:32:11.969Z,21.18
2018-06-15T02:33:11.760Z,21.18
2018-06-15T02:34:11.849Z,21.18
2018-06-15T02:35:11.727Z,21.18
2018-06-15T02:36:11.693Z,21.18
2018-06-15T02:37:11.778Z,21.18
2018-06-15T02:38:11.686Z,21.18
2018-06-15T02:39:11.734Z,21.18
2018-06-15T02:40:11.716Z,21.18
2018-06-15T02:41:11.774Z,21.19
2018-06-15T02:42:11.772Z,21.18
2018-06-15T02:43:11.753Z,21.18
2018-06-15T02:44:11.844Z,21.18
2018-06-15T02:45:12.066Z,21.18
2018-06-15T02:46:11.792Z,21.18
2018-06-15T02:47:11.777Z,21.19
2018-06-15T02:48:11.894Z,21.18
2018-06-15T02:49:11.887Z,21.19
2018-06-15T02:50:11.785Z,21.18
2018-06-15T02:51:11.813Z,21.18
2018-06-15T02:52:11.835Z,21.18
2018-06-15T02:53:11.826Z,21.18
2018-06-15T02:54:11.851Z,21.18
2018-06-15T02:55:11.831Z,21.18
2018-06-15T02:56:11.711Z,21.18
2018-06-15T02:57:11.798Z,21.17
2018-06-15T02:58:11.794Z,21.17
2018-06-15T02:59:11.714Z,21.18
2018-06-15T03:00:11.787Z,21.17
2018-06-15T03:01:11.786Z,21.17
2018-06-15T03:02:11.773Z,21.16
2018-06-15T03:03:11.789Z,21.17
2018-06-15T03:04:11.883Z,21.17
2018-06-15T03:05:11.676Z,21.18
2018-06-15T03:06:11.875Z,21.16
2018-06-15T03:07:11.890Z,21.16
2018-06-15T03:08:11.768Z,21.16
2018-06-15T03:09:11.876Z,21.16
2018-06-15T03:10:11.884Z,21.15
2018-06-15T03:11:11.784Z,21.17
2018-06-15T03:12:11.855Z,21.17
2018-06-15T03:13:11.993Z,21.16
2018-06-15T03:14:11.743Z,21.15
2018-06-15T03:15:11.669Z,21.17
2018-06-15T03:16:11.807Z,21.17
2018-06-15T03:17:11.833Z,21.18
2018-06-15T03:18:11.892Z,21.16
2018-06-15T03:19:11.920Z,21.17
2018-06-15T03:20:11.696Z,21.16
2018-06-15T03:21:11.714Z,21.16
2018-06-15T03:22:11.768Z,21.17
2018-06-15T03:23:11.615Z,21.16
2018-06-15T03:24:11.955Z,21.16
2018-06-15T03:25:12.263Z,21.16
2018-06-15T03:26:11.928Z,21.16
2018-06-15T03:27:11.733Z,21.15
2018-06-15T03:28:11.653Z,21.16
2018-06-15T03:29:11.669Z,21.16
2018-06-15T03:30:11.812Z,21.15
2018-06-15T03:31:11.862Z,21.15
2018-06-15T03:32:11.685Z,21.15
2018-06-15T03:33:11.819Z,21.14
2018-06-15T03:34:11.682Z,21.16
2018-06-15T03:35:11.804Z,21.16
2018-06-15T03:36:11.887Z,21.14
2018-06-15T03:37:11.921Z,21.14
2018-06-15T03:38:11.722Z,21.14
2018-06-15T03:39:11.641Z,21.13
2018-06-15T03:40:11.894Z,21.14
2018-06-15T03:41:11.599Z,21.14
2018-06-15T03:42:11.983Z,21.14
2018-06-15T03:43:12.116Z,21.15
2018-06-15T03:44:12.054Z,21.15
2018-06-15T03:45:11.997Z,21.14
2018-06-15T03:46:11.848Z,21.15
2018-06-15T03:47:11.940Z,21.16
2018-06-15T03:48:11.900Z,21.15
2018-06-15T03:49:11.699Z,21.15
2018-06-15T03:50:11.816Z,21.14
2018-06-15T03:51:11.867Z,21.14
2018-06-15T03:52:21.744Z,21.15
2018-06-15T03:53:12.059Z,21.14
2018-06-15T03:54:11.897Z,21.14
2018-06-15T03:55:12.016Z,21.15
2018-06-15T03:56:11.822Z,21.14
2018-06-15T03:57:12.012Z,21.13
2018-06-15T03:58:11.750Z,21.13
2018-06-15T03:59:11.939Z,21.15
2018-06-15T04:00:11.890Z,21.13
2018-06-15T04:01:11.710Z,21.14
2018-06-15T04:02:11.936Z,21.13
2018-06-15T04:03:11.796Z,21.13
2018-06-15T04:04:11.843Z,21.13
2018-06-15T04:05:11.751Z,21.13
2018-06-15T04:06:11.614Z,21.13
2018-06-15T04:07:11.811Z,21.13
2018-06-15T04:08:12.017Z,21.13
2018-06-15T04:09:11.867Z,21.13
2018-06-15T04:10:12.055Z,21.13
2018-06-15T04:11:11.804Z,21.13
2018-06-15T04:12:11.728Z,21.13
2018-06-15T04:13:12.123Z,21.13
2018-06-15T04:14:11.890Z,21.13
2018-06-15T04:15:11.885Z,21.12
2018-06-15T04:16:11.829Z,21.12
2018-06-15T04:17:11.983Z,21.11
2018-06-15T04:18:11.947Z,21.12
2018-06-15T04:19:11.869Z,21.11
2018-06-15T04:20:11.826Z,21.12
2018-06-15T04:21:11.892Z,21.11
2018-06-15T04:22:11.799Z,21.12
2018-06-15T04:23:11.930Z,21.12
2018-06-15T04:24:11.848Z,21.12
2018-06-15T04:25:11.952Z,21.11
2018-06-15T04:26:11.896Z,21.1
2018-06-15T04:27:11.801Z,21.12
2018-06-15T04:28:11.704Z,21.12
2018-06-15T04:29:12.054Z,21.12
2018-06-15T04:30:11.689Z,21.12
2018-06-15T04:31:12.097Z,21.11
2018-06-15T04:32:11.913Z,21.11
2018-06-15T04:33:21.677Z,21.11
2018-06-15T04:34:11.805Z,21.13
2018-06-15T04:35:11.809Z,21.13
2018-06-15T04:36:11.713Z,21.12
2018-06-15T04:37:11.868Z,21.12
2018-06-15T04:38:11.882Z,21.11
2018-06-15T04:39:11.812Z,21.11
2018-06-15T04:40:11.797Z,21.1
2018-06-15T04:41:11.723Z,21.1
2018-06-15T04:42:12.242Z,21.09
2018-06-15T04:43:11.619Z,21.1
2018-06-15T04:44:11.907Z,21.1
2018-06-15T04:45:11.858Z,21.11
2018-06-15T04:46:11.807Z,21.1
2018-06-15T04:47:11.797Z,21.1
2018-06-15T04:48:11.741Z,21.1
2018-06-15T04:49:11.809Z,21.09
2018-06-15T04:50:11.997Z,21.1
2018-06-15T04:51:11.827Z,21.1
2018-06-15T04:52:11.852Z,21.09
2018-06-15T04:53:11.702Z,21.1
2018-06-15T04:54:11.767Z,21.1
2018-06-15T04:55:11.853Z,21.11
2018-06-15T04:56:12.219Z,21.11
2018-06-15T04:57:11.679Z,21.1
2018-06-15T04:58:42.867Z,21.11
2018-06-15T04:59:11.812Z,21.1
2018-06-15T05:00:11.761Z,21.1
2018-06-15T05:01:11.705Z,21.1
2018-06-15T05:02:11.632Z,21.11
2018-06-15T05:03:12.397Z,21.1
2018-06-15T05:04:11.684Z,21.1
2018-06-15T05:05:11.732Z,21.09
2018-06-15T05:06:11.853Z,21.09
2018-06-15T05:07:11.853Z,21.1
2018-06-15T05:08:11.756Z,21.09
2018-06-15T05:09:11.851Z,21.09
2018-06-15T05:10:11.854Z,21.08
2018-06-15T05:11:11.722Z,21.09
2018-06-15T05:12:12.084Z,21.1
2018-06-15T05:13:11.900Z,21.1
2018-06-15T05:14:11.818Z,21.1
2018-06-15T05:15:11.656Z,21.09
2018-06-15T05:16:11.806Z,21.09
2018-06-15T05:17:12.304Z,21.09
2018-06-15T05:18:11.717Z,21.09
2018-06-15T05:19:11.760Z,21.1
2018-06-15T05:20:11.935Z,21.09
2018-06-15T05:21:11.710Z,21.08
2018-06-15T05:22:11.797Z,21.09
2018-06-15T05:23:11.709Z,21.08
2018-06-15T05:24:11.734Z,21.07
2018-06-15T05:25:11.785Z,21.09
2018-06-15T05:26:11.754Z,21.08
2018-06-15T05:27:11.763Z,21.08
2018-06-15T05:28:11.906Z,21.08
2018-06-15T05:29:11.815Z,21.07
2018-06-15T05:30:11.992Z,21.07
2018-06-15T05:31:11.859Z,21.07
2018-06-15T05:32:11.928Z,21.07
2018-06-15T05:33:11.618Z,21.07
2018-06-15T05:34:11.910Z,21.07
2018-06-15T05:35:12.251Z,21.07
2018-06-15T05:36:11.603Z,21.07
2018-06-15T05:37:11.570Z,21.07
2018-06-15T05:38:11.605Z,21.07
2018-06-15T05:39:11.849Z,21.07
2018-06-15T05:40:11.686Z,21.07
2018-06-15T05:41:11.862Z,21.07
2018-06-15T05:42:11.696Z,21.07
2018-06-15T05:43:11.694Z,21.07
2018-06-15T05:44:11.668Z,21.06
2018-06-15T05:45:11.700Z,21.07
2018-06-15T05:46:11.691Z,21.07
2018-06-15T05:47:11.644Z,21.07
2018-06-15T05:48:11.772Z,21.06
2018-06-15T05:49:11.756Z,21.06
2018-06-15T05:50:11.809Z,21.07
2018-06-15T05:51:11.718Z,21.05
2018-06-15T05:52:11.767Z,21.05
2018-06-15T05:53:11.679Z,21.05
2018-06-15T05:54:11.960Z,21.05
2018-06-15T05:55:11.789Z,21.05
2018-06-15T05:56:11.802Z,21.05
2018-06-15T05:57:11.853Z,21.05
2018-06-15T05:58:11.650Z,21.05
2018-06-15T05:59:12.025Z,21.05
2018-06-15T06:00:11.791Z,21.05
2018-06-15T06:01:11.698Z,21.04
2018-06-15T06:02:11.584Z,21.05
2018-06-15T06:03:11.669Z,21.05
2018-06-15T06:04:12.566Z,21.06
2018-06-15T06:05:11.878Z,21.05
2018-06-15T06:06:11.865Z,21.06
2018-06-15T06:07:11.643Z,21.05
2018-06-15T06:08:11.779Z,21.06
2018-06-15T06:09:11.823Z,21.06
2018-06-15T06:10:11.844Z,21.06
2018-06-15T06:11:11.902Z,21.06
2018-06-15T06:12:11.680Z,21.06
2018-06-15T06:13:11.729Z,21.06
2018-06-15T06:14:11.790Z,21.06
2018-06-15T06:15:11.755Z,21.06
2018-06-15T06:16:11.654Z,21.05
2018-06-15T06:17:11.748Z,21.06
2018-06-15T06:18:11.826Z,21.06
2018-06-15T06:19:11.646Z,21.07
2018-06-15T06:20:11.867Z,21.06
2018-06-15T06:21:11.757Z,21.06
2018-06-15T06:22:11.863Z,21.06
2018-06-15T06:23:11.749Z,21.07
2018-06-15T06:24:11.750Z,21.07
2018-06-15T06:25:11.677Z,21.07
2018-06-15T06:26:11.930Z,21.07
2018-06-15T06:27:11.918Z,21.07
2018-06-15T06:28:11.990Z,21.07
2018-06-15T06:29:21.877Z,21.07
2018-06-15T06:30:12.421Z,21.06
2018-06-15T06:31:11.828Z,21.06
2018-06-15T06:32:11.702Z,21.07
2018-06-15T06:33:11.825Z,21.06
2018-06-15T06:34:12.088Z,21.06
2018-06-15T06:35:11.629Z,21.06
2018-06-15T06:36:11.832Z,21.07
2018-06-15T06:37:11.870Z,21.06
2018-06-15T06:38:11.755Z,21.07
2018-06-15T06:39:11.607Z,21.06
2018-06-15T06:40:11.768Z,21.06
2018-06-15T06:41:11.830Z,21.06
2018-06-15T06:42:12.040Z,21.06
2018-06-15T06:43:11.691Z,21.06
2018-06-15T06:44:11.753Z,21.06
2018-06-15T06:45:11.626Z,21.06
2018-06-15T06:46:11.632Z,21.07
2018-06-15T06:47:11.797Z,21.06
2018-06-15T06:48:11.821Z,21.06
2018-06-15T06:49:11.668Z,21.06
2018-06-15T06:50:11.733Z,21.06
2018-06-15T06:51:12.156Z,21.06
2018-06-15T06:52:11.875Z,21.06
2018-06-15T06:53:11.707Z,21.06
2018-06-15T06:54:11.655Z,21.06
2018-06-15T06:55:11.798Z,21.06
2018-06-15T06:56:11.648Z,21.06
2018-06-15T06:57:11.666Z,21.06
2018-06-15T06:58:11.681Z,21.05
2018-06-15T06:59:11.931Z,21.06
2018-06-15T07:00:11.763Z,21.05
2018-06-15T07:01:11.895Z,21.05
2018-06-15T07:02:11.744Z,21.06
2018-06-15T07:03:11.978Z,21.05
2018-06-15T07:04:11.917Z,21.05
2018-06-15T07:05:11.757Z,21.05
2018-06-15T07:06:12.300Z,21.05
2018-06-15T07:07:11.766Z,21.05
2018-06-15T07:08:11.754Z,21.05
2018-06-15T07:09:11.791Z,21.05
2018-06-15T07:10:11.863Z,21.05
2018-06-15T07:11:11.776Z,21.05
2018-06-15T07:12:11.591Z,21.05
2018-06-15T07:13:12.234Z,21.05
2018-06-15T07:14:11.614Z,21.05
2018-06-15T07:15:11.857Z,21.05
2018-06-15T07:16:11.826Z,21.06
2018-06-15T07:17:12.024Z,21.06
2018-06-15T07:18:11.650Z,21.05
2018-06-15T07:19:11.733Z,21.06
2018-06-15T07:20:11.917Z,21.06
2018-06-15T07:21:11.580Z,21.06
2018-06-15T07:22:12.009Z,21.07
2018-06-15T07:23:11.827Z,21.07
2018-06-15T07:24:11.880Z,21.07
2018-06-15T07:25:11.975Z,21.07
2018-06-15T07:26:11.761Z,21.07
2018-06-15T07:27:11.812Z,21.07
2018-06-15T07:28:11.833Z,21.07
2018-06-15T07:29:11.947Z,21.07
2018-06-15T07:30:11.772Z,21.07
2018-06-15T07:31:11.881Z,21.08
2018-06-15T07:32:11.834Z,21.08
2018-06-15T07:33:11.986Z,21.08
2018-06-15T07:34:11.799Z,21.08
2018-06-15T07:35:11.859Z,21.07
2018-06-15T07:36:11.597Z,21.07
2018-06-15T07:37:11.875Z,21.07
2018-06-15T07:38:11.642Z,21.07
2018-06-15T07:39:11.710Z,21.08
2018-06-15T07:40:11.636Z,21.07
2018-06-15T07:41:11.706Z,21.07
2018-06-15T07:42:11.759Z,21.07
2018-06-15T07:43:11.798Z,21.07
2018-06-15T07:44:11.821Z,21.07
2018-06-15T07:45:11.745Z,21.07
2018-06-15T07:46:12.322Z,21.07
2018-06-15T07:47:11.856Z,21.06
2018-06-15T07:48:11.614Z,21.06
2018-06-15T07:49:11.603Z,21.06
2018-06-15T07:50:11.812Z,21.06
2018-06-15T07:51:11.671Z,21.06
2018-06-15T07:52:11.611Z,21.05
2018-06-15T07:53:11.811Z,21.06
2018-06-15T07:54:11.849Z,21.05
2018-06-15T07:55:11.729Z,21.05
2018-06-15T07:56:11.769Z,21.05
2018-06-15T07:57:11.475Z,21.05
2018-06-15T07:58:11.843Z,21.05
2018-06-15T07:59:11.760Z,21.05
2018-06-15T08:00:11.866Z,21.05
2018-06-15T08:01:11.554Z,21.04
2018-06-15T08:02:11.695Z,21.04
2018-06-15T08:03:11.770Z,21.04
2018-06-15T08:04:11.856Z,21.04
2018-06-15T08:05:11.568Z,21.04
2018-06-15T08:06:11.544Z,21.04
2018-06-15T08:07:11.619Z,21.04
2018-06-15T08:08:11.756Z,21.04
2018-06-15T08:09:11.638Z,21.03
2018-06-15T08:10:11.952Z,21.03
2018-06-15T08:11:11.764Z,21.03
2018-06-15T08:12:11.607Z,21.03
2018-06-15T08:13:11.709Z,21.04
2018-06-15T08:14:11.750Z,21.03
2018-06-15T08:15:36.571Z,21.03
2018-06-15T08:16:11.735Z,21.02
2018-06-15T08:17:11.688Z,21.02
2018-06-15T08:18:11.794Z,21.03
2018-06-15T08:19:11.869Z,21.03
2018-06-15T08:20:11.764Z,21.03
2018-06-15T08:21:11.755Z,21.03
2018-06-15T08:22:11.563Z,21.03
2018-06-15T08:23:11.684Z,21.03
2018-06-15T08:24:11.717Z,21.04
2018-06-15T08:25:48.594Z,21.06
2018-06-15T08:26:11.792Z,21.06
2018-06-15T08:27:11.779Z,21.07
2018-06-15T08:28:11.805Z,21.07
2018-06-15T08:29:11.742Z,21.08
2018-06-15T08:30:11.651Z,21.07
2018-06-15T08:31:11.774Z,21.07
2018-06-15T08:32:11.724Z,21.07
2018-06-15T08:33:11.758Z,21.07
2018-06-15T08:34:11.702Z,21.07
2018-06-15T08:35:11.654Z,21.07
2018-06-15T08:36:11.684Z,21.06
2018-06-15T08:37:11.910Z,21.07
2018-06-15T08:38:11.709Z,21.06
2018-06-15T08:39:11.623Z,21.06
2018-06-15T08:40:11.724Z,21.06
2018-06-15T08:41:11.801Z,21.06
2018-06-15T08:42:11.634Z,21.06
2018-06-15T08:43:11.725Z,21.07
2018-06-15T08:44:11.788Z,21.06
2018-06-15T08:45:11.635Z,21.06
2018-06-15T08:46:11.710Z,21.06
2018-06-15T08:47:11.677Z,21.05
2018-06-15T08:48:21.610Z,21.06
2018-06-15T08:49:11.818Z,21.06
2018-06-15T08:50:11.862Z,21.05
2018-06-15T08:51:11.828Z,21.05
2018-06-15T08:52:11.804Z,21.05
2018-06-15T08:53:11.799Z,21.05
2018-06-15T08:54:11.843Z,21.05
2018-06-15T08:55:11.884Z,21.05
2018-06-15T08:56:11.795Z,21.05
2018-06-15T08:57:11.598Z,21.02
2018-06-15T08:58:11.736Z,21.04
2018-06-15T08:59:11.827Z,21.06
2018-06-15T09:00:11.751Z,21.07
2018-06-15T09:01:11.666Z,21.07
2018-06-15T09:02:11.726Z,21.09
2018-06-15T09:03:11.809Z,21.11
2018-06-15T09:04:11.638Z,21.1
2018-06-15T09:05:11.757Z,21.1
2018-06-15T09:06:11.904Z,21.12
2018-06-15T09:07:11.602Z,21.13
2018-06-15T09:08:11.801Z,21.12
2018-06-15T09:09:11.877Z,21.13
2018-06-15T09:10:11.698Z,21.14
2018-06-15T09:11:11.829Z,21.16
2018-06-15T09:12:11.694Z,21.18
2018-06-15T09:13:11.615Z,21.18
2018-06-15T09:14:11.682Z,21.19
2018-06-15T09:15:11.683Z,21.2
2018-06-15T09:16:11.756Z,21.2
2018-06-15T09:17:11.696Z,21.21
2018-06-15T09:18:12.079Z,21.22
2018-06-15T09:19:11.868Z,21.23
2018-06-15T09:20:11.829Z,21.24
2018-06-15T09:21:11.832Z,21.23
2018-06-15T09:22:11.633Z,21.24
2018-06-15T09:23:11.728Z,21.24
2018-06-15T09:24:11.762Z,21.24
2018-06-15T09:25:11.765Z,21.25
2018-06-15T09:26:11.619Z,21.26
2018-06-15T09:27:11.674Z,21.26
2018-06-15T09:28:11.855Z,21.27
2018-06-15T09:29:11.793Z,21.27
2018-06-15T09:30:11.644Z,21.29
2018-06-15T09:31:11.679Z,21.29
2018-06-15T09:32:11.636Z,21.3
2018-06-15T09:33:11.803Z,21.29
2018-06-15T09:34:11.649Z,21.3
2018-06-15T09:35:11.705Z,21.3
2018-06-15T09:36:11.739Z,21.3
2018-06-15T09:37:11.696Z,21.31
2018-06-15T09:38:11.776Z,21.32
2018-06-15T09:39:11.624Z,21.32
2018-06-15T09:40:11.712Z,21.32
2018-06-15T09:41:11.710Z,21.33
2018-06-15T09:42:11.820Z,21.33
2018-06-15T09:43:12.121Z,21.32
2018-06-15T09:44:11.801Z,21.34
2018-06-15T09:45:11.776Z,21.35
2018-06-15T09:46:11.972Z,21.34
2018-06-15T09:47:11.593Z,21.35
2018-06-15T09:48:11.825Z,21.34
2018-06-15T09:49:11.653Z,21.36
2018-06-15T09:50:11.851Z,21.36
2018-06-15T09:51:11.788Z,21.36
2018-06-15T09:52:11.968Z,21.36
2018-06-15T09:53:11.800Z,21.35
2018-06-15T09:54:11.715Z,21.36
2018-06-15T09:55:11.950Z,21.36
2018-06-15T09:56:11.788Z,21.36
2018-06-15T09:57:11.748Z,21.36
2018-06-15T09:58:11.558Z,21.37
2018-06-15T09:59:11.707Z,21.39
2018-06-15T10:00:11.868Z,21.38
2018-06-15T10:01:11.780Z,21.38
2018-06-15T10:02:11.708Z,21.39
2018-06-15T10:03:11.633Z,21.39
2018-06-15T10:04:11.992Z,21.38
2018-06-15T10:05:11.832Z,21.37
2018-06-15T10:06:12.403Z,21.38
2018-06-15T10:07:11.610Z,21.39
2018-06-15T10:08:11.806Z,21.41
2018-06-15T10:09:11.835Z,21.41
2018-06-15T10:10:11.977Z,21.42
2018-06-15T10:11:11.862Z,21.41
2018-06-15T10:12:11.872Z,21.42
2018-06-15T10:13:11.748Z,21.42
2018-06-15T10:14:11.817Z,21.43
2018-06-15T10:15:11.802Z,21.43
2018-06-15T10:16:11.634Z,21.43
2018-06-15T10:17:11.744Z,21.43
2018-06-15T10:18:11.820Z,21.44
2018-06-15T10:19:11.719Z,21.43
2018-06-15T10:20:11.944Z,21.44
2018-06-15T10:21:11.576Z,21.44
2018-06-15T10:22:11.744Z,21.43
2018-06-15T10:23:11.700Z,21.45
2018-06-15T10:24:11.596Z,21.45
2018-06-15T10:25:11.581Z,21.45
2018-06-15T10:26:11.765Z,21.45
2018-06-15T10:27:11.910Z,21.45
2018-06-15T10:28:11.820Z,21.45
2018-06-15T10:29:11.692Z,21.44
2018-06-15T10:30:11.693Z,21.43
2018-06-15T10:31:11.728Z,21.46
2018-06-15T10:32:11.721Z,21.46
2018-06-15T10:33:11.580Z,21.46
2018-06-15T10:34:11.601Z,21.48
2018-06-15T10:35:11.700Z,21.48
2018-06-15T10:36:11.714Z,21.48
2018-06-15T10:37:11.758Z,21.49
2018-06-15T10:38:11.622Z,21.49
2018-06-15T10:38:54.418Z,21.55
2018-06-15T10:39:51.947Z,21.63
2018-06-15T10:40:52.106Z,21.65
2018-06-15T10:41:51.562Z,21.66
2018-06-15T10:42:51.877Z,21.68
2018-06-15T10:43:51.919Z,21.69
2018-06-15T10:44:51.849Z,21.7
2018-06-15T10:45:51.173Z,21.71
2018-06-15T10:46:51.044Z,21.71
2018-06-15T10:47:51.190Z,21.71
2018-06-15T10:48:51.526Z,21.72
2018-06-15T10:49:51.327Z,21.72
2018-06-15T10:50:51.453Z,21.72
2018-06-15T10:51:51.118Z,21.72
2018-06-15T10:52:32.694Z,21.73
2018-06-15T10:53:14.756Z,21.74
2018-06-15T10:54:14.755Z,21.74
2018-06-15T10:55:14.768Z,21.75
2018-06-15T10:56:14.969Z,21.75
2018-06-15T10:57:14.643Z,21.76
2018-06-15T10:58:14.697Z,21.76
2018-06-15T10:59:14.685Z,21.77
2018-06-15T11:00:14.582Z,21.77
2018-06-15T11:01:14.718Z,21.77
2018-06-15T11:02:14.641Z,21.77
2018-06-15T11:03:14.562Z,21.77
2018-06-15T11:04:14.592Z,21.78
2018-06-15T11:05:14.671Z,21.78
2018-06-15T11:05:45.477Z,21.78
2018-06-15T11:06:45.511Z,21.78
2018-06-15T11:07:45.369Z,21.78
2018-06-15T11:08:45.407Z,21.79
2018-06-15T11:09:45.570Z,21.79
2018-06-15T11:10:45.480Z,21.8
2018-06-15T11:11:45.491Z,21.82
2018-06-15T11:12:58.140Z,21.85
2018-06-15T11:13:58.023Z,21.75
2018-06-15T11:14:57.909Z,21.72
2018-06-15T11:15:57.980Z,21.67
2018-06-15T11:16:57.954Z,21.64
2018-06-15T11:17:58.078Z,21.63
2018-06-15T11:18:58.060Z,21.6
2018-06-15T11:19:58.172Z,21.59
2018-06-15T11:20:58.102Z,21.58
2018-06-15T11:21:58.065Z,21.55
2018-06-15T11:22:58.034Z,21.54
2018-06-15T11:23:58.039Z,21.54
2018-06-15T11:24:57.982Z,21.53
2018-06-15T11:25:58.117Z,21.51
2018-06-15T11:26:57.968Z,21.5
2018-06-15T11:27:58.123Z,21.49
2018-06-15T11:28:58.056Z,21.48
2018-06-15T11:29:57.851Z,21.48
2018-06-15T11:30:58.792Z,21.47
2018-06-15T11:31:58.019Z,21.45
2018-06-15T11:32:57.850Z,21.45
2018-06-15T11:33:57.983Z,21.44
2018-06-15T11:34:57.954Z,21.42
2018-06-15T11:35:58.026Z,21.42
2018-06-15T11:36:57.996Z,21.42
2018-06-15T11:37:58.041Z,21.42
2018-06-15T11:38:57.924Z,21.42
2018-06-15T11:39:58.087Z,21.42
2018-06-15T11:40:58.452Z,21.41
2018-06-15T11:41:57.916Z,21.41
2018-06-15T11:42:57.898Z,21.41
2018-06-15T11:43:57.980Z,21.39
2018-06-15T11:44:57.994Z,21.39
2018-06-15T11:45:58.062Z,21.38
2018-06-15T11:46:58.072Z,21.38
2018-06-15T11:47:57.946Z,21.36
2018-06-15T11:48:58.036Z,21.35
2018-06-15T11:49:58.031Z,21.35
2018-06-15T11:50:57.947Z,21.34
2018-06-15T11:51:58.088Z,21.33
2018-06-15T11:52:58.064Z,21.33
2018-06-15T11:53:57.942Z,21.32
2018-06-15T11:54:58.014Z,21.31
2018-06-15T11:55:57.849Z,21.3
2018-06-15T11:56:58.040Z,21.33
2018-06-15T11:57:57.920Z,21.31
2018-06-15T11:58:57.897Z,21.31
2018-06-15T11:59:57.842Z,21.32
2018-06-15T12:00:57.879Z,21.33
2018-06-15T12:01:58.042Z,21.32
2018-06-15T12:02:57.980Z,21.33
2018-06-15T12:03:58.137Z,21.33
2018-06-15T12:04:58.298Z,21.34
2018-06-15T12:05:58.154Z,21.35
2018-06-15T12:06:58.171Z,21.35
2018-06-15T12:07:58.725Z,21.35
2018-06-15T12:09:07.982Z,21.35
2018-06-15T12:09:58.192Z,21.33
2018-06-15T12:10:57.926Z,21.34
2018-06-15T12:11:57.975Z,21.36
2018-06-15T12:12:58.141Z,21.35
2018-06-15T12:13:57.974Z,21.36
2018-06-15T12:14:58.316Z,21.34
2018-06-15T12:15:58.309Z,21.34
2018-06-15T12:16:58.188Z,21.34
2018-06-15T12:17:58.260Z,21.34
2018-06-15T12:18:58.205Z,21.36
2018-06-15T12:19:58.195Z,21.36
2018-06-15T12:20:58.194Z,21.34
2018-06-15T12:21:58.069Z,21.38
2018-06-15T12:22:58.051Z,21.38
2018-06-15T12:23:58.243Z,21.39
2018-06-15T12:24:58.119Z,21.4
2018-06-15T12:25:57.966Z,21.4
2018-06-15T12:26:58.013Z,21.41
2018-06-15T12:27:58.171Z,21.42
2018-06-15T12:28:58.142Z,21.42
2018-06-15T12:29:58.053Z,21.44
2018-06-15T12:30:58.116Z,21.45
2018-06-15T12:31:57.974Z,21.46
2018-06-15T12:32:58.113Z,21.45
2018-06-15T12:33:58.166Z,21.44
2018-06-15T12:34:58.110Z,21.44
2018-06-15T12:35:58.205Z,21.44
2018-06-15T12:36:58.497Z,21.43
2018-06-15T12:37:58.017Z,21.43
2018-06-15T12:38:58.065Z,21.43
2018-06-15T12:39:58.175Z,21.43
2018-06-15T12:40:57.928Z,21.42
2018-06-15T12:41:58.085Z,21.44
2018-06-15T12:42:58.075Z,21.44
2018-06-15T12:43:57.937Z,21.44
2018-06-15T12:44:58.098Z,21.44
2018-06-15T12:45:58.755Z,21.43
2018-06-15T12:46:58.066Z,21.42
2018-06-15T12:47:57.948Z,21.44
2018-06-15T12:48:58.112Z,21.45
2018-06-15T12:50:08.093Z,21.45
2018-06-15T12:50:58.182Z,21.46
2018-06-15T12:51:58.156Z,21.45
2018-06-15T12:52:58.167Z,21.44